This is the latest recevied weather packets stored in our database for station/object JE9BHE-13. If no packets are shown the sender has not sent any weather packets the latest 10 day(s).
| Time | Temp. | Humidity | Pressure | Rain* | Wind** | Luminosity | Snow |
|---|---|---|---|---|---|---|---|
| 1777428906 | 15° C | 84% | 1018.5 hPa | 0 mm | - | - | - |
| 1777426386 | 17.78° C | 73% | 1018.4 hPa | 0 mm | - | - | - |
| 1777424586 | 17.78° C | 70% | 1018.2 hPa | 0 mm | - | - | - |
| 1777424406 | 17.22° C | 70% | 1018.1 hPa | 0 mm | - | - | - |
| 1777423146 | 16.67° C | 72% | 1018 hPa | 0 mm | - | - | - |
| 1777422426 | 16.11° C | 74% | 1017.9 hPa | 0 mm | - | - | - |
| 1777422067 | 16.11° C | 76% | 1018 hPa | 0 mm | - | - | - |
| 1777420986 | 16.11° C | 75% | 1017.9 hPa | 0 mm | - | - | - |
| 1777419906 | 16.11° C | 74% | 1018.1 hPa | 0 mm | - | - | - |
| 1777419007 | 16.11° C | 76% | 1017.7 hPa | 0 mm | - | - | - |
| 1777418286 | 16.11° C | 75% | 1017.4 hPa | 0 mm | - | - | - |
| 1777417926 | 15.56° C | 77% | 1017.6 hPa | 0 mm | - | - | - |
| 1777414866 | 14.44° C | 81% | 1016.7 hPa | 0 mm | - | - | - |
| 1777414326 | 14.44° C | 81% | 1016.8 hPa | 0 mm | - | - | - |
| 1777413606 | 14.44° C | 80% | 1016.6 hPa | 0 mm | - | - | - |
| 1777413426 | 14.44° C | 80% | 1016.6 hPa | 0 mm | - | - | - |
| 1777411446 | 13.89° C | 81% | 1016.4 hPa | 0 mm | - | - | - |
| 1777410546 | 13.33° C | 81% | 1015.8 hPa | 0 mm | - | - | - |
| 1777405867 | 13.33° C | 78% | 1015 hPa | 0 mm | - | - | - |
| 1777399566 | 15.56° C | 75% | 1015 hPa | 0 mm | - | - | - |
| 1777399207 | 15.56° C | 76% | 1015.2 hPa | 0 mm | - | - | - |
| 1777398847 | 15.56° C | 76% | 1015.1 hPa | 0 mm | - | - | - |
| 1777396866 | 16.11° C | 74% | 1015.2 hPa | 0 mm | - | - | - |
| 1777396326 | 16.11° C | 73% | 1015.2 hPa | 0 mm | - | - | - |
| 1777394527 | 16.11° C | 72% | 1015.4 hPa | 0 mm | - | - | - |
* Rain latest hour (hover to see other rain measurements)
** Current wind speed in m/s (hover to see current wind gust speed)